createdAt,value
2023-07-20T00:13:39.405Z,95939.25
2023-07-20T00:23:59.029Z,95937.75
2023-07-20T00:29:09.199Z,95942.50
2023-07-20T00:34:23.677Z,95943.03
2023-07-20T00:39:31.497Z,95940.13
2023-07-20T00:44:41.772Z,95935.22
2023-07-20T00:49:50.264Z,95938.75
2023-07-20T00:54:57.906Z,95940.44
2023-07-20T01:00:10.203Z,95943.69
2023-07-20T01:05:18.132Z,95939.44
2023-07-20T01:10:33.188Z,95937.75
2023-07-20T01:15:43.348Z,95942.31
2023-07-20T01:20:51.422Z,95942.56
2023-07-20T01:26:12.390Z,95952.59
2023-07-20T01:31:34.177Z,95949.59
2023-07-20T01:48:07.343Z,95931.78
2023-07-20T01:53:14.959Z,95926.06
2023-07-20T01:58:22.502Z,95937.22
2023-07-20T02:03:32.659Z,95939.56
2023-07-20T02:08:40.208Z,95927.47
2023-07-20T02:13:47.791Z,95938.56
2023-07-20T02:24:29.430Z,95932.19
2023-07-20T02:29:37.210Z,95929.91
2023-07-20T02:34:47.365Z,95934.13
2023-07-20T02:39:55.221Z,95933.41
2023-07-20T02:45:02.968Z,95945.63
2023-07-20T02:50:14.975Z,95944.91
2023-07-20T02:55:22.651Z,95943.75
2023-07-20T03:00:30.252Z,95944.94
2023-07-20T03:05:41.795Z,95949.53
2023-07-20T03:10:49.443Z,95944.94
2023-07-20T03:15:57.008Z,95953.69
2023-07-20T03:21:07.332Z,95945.69
2023-07-20T03:26:51.044Z,95947.63
2023-07-20T03:32:00.405Z,95940.75
2023-07-20T03:37:10.863Z,95954.47
2023-07-20T03:42:18.478Z,95959.78
2023-07-20T03:47:26.119Z,95965.50
2023-07-20T03:52:36.577Z,95963.97
2023-07-20T03:57:47.727Z,95965.88
2023-07-20T04:02:55.478Z,95967.41
2023-07-20T04:08:05.772Z,95968.53
2023-07-20T04:13:13.393Z,95974.59
2023-07-20T04:18:21.044Z,95986.78
2023-07-20T04:23:31.242Z,95977.28
2023-07-20T04:28:39.227Z,95974.25
2023-07-20T04:33:46.932Z,95976.94
2023-07-20T04:38:57.271Z,95971.59
2023-07-20T04:44:04.959Z,95971.59
2023-07-20T04:49:13.939Z,95981.88
2023-07-20T04:54:24.164Z,95978.81
2023-07-20T04:59:31.828Z,95991.41
2023-07-20T05:04:39.946Z,95973.88
2023-07-20T05:09:50.577Z,95982.63
2023-07-20T05:14:58.324Z,95982.22
2023-07-20T05:20:06.314Z,95982.56
2023-07-20T05:25:19.677Z,95978.69
2023-07-20T05:30:30.509Z,95982.84
2023-07-20T05:35:40.385Z,95983.59
2023-07-20T05:40:50.819Z,95973.59
2023-07-20T05:45:58.518Z,95978.09
2023-07-20T05:51:06.848Z,95975.72
2023-07-20T05:56:18.054Z,95967.22
2023-07-20T06:01:28.214Z,95985.75
2023-07-20T06:06:35.879Z,95981.19
2023-07-20T06:11:46.112Z,95986.78
2023-07-20T06:16:53.773Z,95992.81
2023-07-20T06:22:01.375Z,95986.63
2023-07-20T06:27:11.960Z,95991.13
2023-07-20T06:32:19.543Z,95980.28
2023-07-20T06:37:27.393Z,95978.28
2023-07-20T06:47:48.841Z,95979.63
2023-07-20T06:52:58.976Z,95984.50
2023-07-20T06:58:09.378Z,95988.16
2023-07-20T07:03:17.383Z,95976.56
2023-07-20T07:08:25.079Z,95972.16
2023-07-20T07:13:36.186Z,95973.03
2023-07-20T07:18:43.610Z,95974.09
2023-07-20T07:23:51.250Z,95969.50
2023-07-20T07:29:03.601Z,95966.97
2023-07-20T07:34:11.418Z,95969.00
2023-07-20T07:44:32.555Z,95965.16
2023-07-20T07:49:40.238Z,95975.06
2023-07-20T07:54:49.175Z,95959.38
2023-07-20T07:59:59.349Z,95968.75
2023-07-20T08:05:07.324Z,95956.72
2023-07-20T08:10:15.422Z,95965.81
2023-07-20T08:15:26.585Z,95954.13
2023-07-20T08:20:37.180Z,95963.47
2023-07-20T08:25:45.469Z,95955.88
2023-07-20T08:30:55.855Z,95948.06
2023-07-20T08:36:05.156Z,95955.91
2023-07-20T08:41:13.463Z,95956.22
2023-07-20T09:48:36.515Z,95942.31
2023-07-20T09:54:02.998Z,95942.72
2023-07-20T09:59:13.164Z,95921.94
2023-07-20T10:04:22.824Z,95936.75
2023-07-20T10:09:32.251Z,95927.09
2023-07-20T10:14:48.541Z,95925.25
2023-07-20T10:20:01.291Z,95924.19
2023-07-20T10:25:10.599Z,95910.28
2023-07-20T10:30:22.052Z,95908.63
2023-07-20T10:35:29.609Z,95902.22
2023-07-20T10:40:38.530Z,95898.00
2023-07-20T10:45:53.281Z,95905.78
2023-07-20T10:51:15.552Z,95891.81
2023-07-20T10:56:24.927Z,95885.00
2023-07-20T11:01:40.651Z,95875.78
2023-07-20T11:06:48.554Z,95875.66
2023-07-20T11:12:14.822Z,95883.84
2023-07-20T11:17:33.384Z,95894.19
2023-07-20T11:22:43.320Z,95879.72
2023-07-20T11:27:50.967Z,95876.59
2023-07-20T11:33:01.348Z,95879.69
2023-07-20T11:38:10.321Z,95870.84
2023-07-20T11:43:20.781Z,95863.06
2023-07-20T11:48:32.445Z,95865.53
2023-07-20T11:53:40.626Z,95858.63
2023-07-20T11:59:05.674Z,95853.66
2023-07-20T12:04:15.987Z,95837.78
2023-07-20T12:09:26.298Z,95844.56
2023-07-20T12:14:38.498Z,95842.50
2023-07-20T12:19:48.658Z,95839.44
2023-07-20T12:24:56.543Z,95834.41
2023-07-20T12:30:10.250Z,95827.91
2023-07-20T12:35:20.454Z,95823.25
2023-07-20T12:40:28.114Z,95816.03
2023-07-20T12:45:35.817Z,95808.16
2023-07-20T12:50:46.055Z,95798.56
2023-07-20T12:55:53.690Z,95803.81
2023-07-20T13:01:01.902Z,95801.00
2023-07-20T13:11:23.949Z,95795.69
2023-07-20T13:16:31.779Z,95789.09
2023-07-20T13:21:42.790Z,95789.31
2023-07-20T13:26:50.422Z,95774.81
2023-07-20T13:31:59.624Z,95769.31
2023-07-20T13:37:13.688Z,95772.19
2023-07-20T13:42:22.792Z,95766.19
2023-07-20T13:47:30.980Z,95776.00
2023-07-20T13:52:42.453Z,95761.78
2023-07-20T13:57:51.844Z,95756.78
2023-07-20T14:08:12.461Z,95752.13
2023-07-20T14:13:21.722Z,95740.06
2023-07-20T14:18:34.019Z,95742.34
2023-07-20T14:24:02.229Z,95738.31
2023-07-20T14:35:51.382Z,95733.81
2023-07-20T14:54:10.654Z,95735.28
2023-07-20T15:18:45.517Z,95718.97
2023-07-20T15:24:53.571Z,95717.78
2023-07-20T16:01:38.225Z,95679.31
2023-07-20T16:13:07.441Z,95681.38
2023-07-20T17:43:39.395Z,95665.44
2023-07-20T17:48:53.012Z,95670.56
2023-07-20T17:54:17.845Z,95669.56
2023-07-20T17:59:35.163Z,95673.63
2023-07-20T18:04:42.951Z,95674.50
2023-07-20T18:09:50.642Z,95678.72
2023-07-20T18:15:09.136Z,95674.44
2023-07-20T18:20:18.039Z,95662.59
2023-07-20T18:31:36.795Z,95663.59
2023-07-20T18:36:56.928Z,95665.41
2023-07-20T18:42:16.520Z,95672.50
2023-07-20T18:47:26.940Z,95664.75
2023-07-20T18:52:54.128Z,95664.75
2023-07-20T18:58:08.500Z,95672.59
2023-07-20T19:03:22.141Z,95675.72
2023-07-20T19:09:05.791Z,95671.31
2023-07-20T19:14:15.470Z,95682.06
2023-07-20T19:19:27.210Z,95674.88
2023-07-20T19:25:22.803Z,95682.81
2023-07-20T19:30:31.266Z,95684.53
